Data for 07/09/2010

Time Sea-Level Adjusted Pressure Absolute Pressure Temperature Relative Humidity Dew Point   
(mb) (inHg) (mb) (inHg) (C) (F) (%) (C) (F)
00:05 1023 30.21 852 25.16 18.7 65.7 40 5 41
00:10 1023 30.21 852 25.16 18.6 65.5 40 4.9 40.9
00:15 1023 30.21 852 25.16 18.5 65.3 41 5 40.9
00:20 1023 30.21 852 25.16 18.4 65.1 40 4.9 40.8
00:25 1023 30.21 852 25.16 18.3 64.9 41 4.9 40.8
00:30 1023 30.21 852 25.16 18.2 64.7 41 4.9 40.9
00:35 1023 30.21 852 25.16 18.1 64.6 41 4.9 40.8
00:40 1023 30.21 852 25.16 18 64.4 42 4.8 40.7
00:45 1023 30.21 852 25.16 18 64.4 41 4.5 40.2
00:50 1023 30.21 852 25.16 18.1 64.5 41 4.6 40.2
00:55 1023 30.21 852 25.16 18.1 64.6 40 4.3 39.8
01:00 1023 30.21 852 25.16 18.2 64.7 39 4.3 39.7
01:05 1023 30.21 852 25.16 18.2 64.8 40 4.4 39.9
01:10 1023 30.21 852 25.16 18.1 64.6 40 4.4 40
01:15 1023 30.21 852 25.16 17.9 64.3 41 4.5 40.1
01:20 1023 30.21 852 25.16 17.8 64.1 41 4.6 40.3
01:25 1023 30.21 852 25.16 17.6 63.6 42 4.6 40.3
01:30 1023 30.21 852 25.16 17.3 63.1 43 4.7 40.4
01:35 1023 30.21 852 25.16 17.3 63.1 43 4.6 40.4
01:40 1023 30.21 852 25.16 17.2 62.9 43 4.7 40.5
01:45 1023 30.21 852 25.16 17 62.7 44 4.8 40.7
01:50 1023 30.21 852 25.16 16.9 62.5 44 4.7 40.4
01:55 1023 30.21 852 25.16 16.9 62.5 44 4.6 40.2
02:00 1023 30.21 852 25.16 17 62.6 43 4.4 39.9
02:05 1023 30.21 852 25.16 17.1 62.8 43 4.7 40.5
02:10 1023 30.21 852 25.16 17 62.6 44 4.7 40.5
02:15 1023 30.21 852 25.16 17.1 62.8 43 4.5 40.1
02:20 1023 30.21 852 25.16 17.2 62.9 43 4.5 40.2
02:25 1023 30.21 852 25.16 17.2 63 42 4.4 39.9
02:30 1023 30.21 852 25.16 17.4 63.3 42 4.3 39.8
02:35 1023 30.21 852 25.16 17.5 63.5 42 4.5 40.1
02:40 1023 30.21 852 25.16 17.3 63.2 42 4.6 40.3
02:45 1023 30.21 852 25.16 17.3 63.1 42 4.5 40.1
02:50 1023 30.21 852 25.16 17.2 62.9 43 4.7 40.5
02:55 1023 30.21 852 25.16 17 62.7 43 4.6 40.3
03:00 1023 30.21 852 25.16 17.1 62.7 44 4.8 40.6
03:05 1023 30.21 852 25.16 16.9 62.3 47 5.4 41.8
03:10 1023 30.21 852 25.16 16.2 61.1 50 5.8 42.4
03:15 1023 30.21 852 25.16 15.4 59.7 52 5.7 42.3
03:20 1023 30.21 852 25.16 15.4 59.6 51 5.3 41.5
03:25 1023 30.21 852 25.16 15.4 59.8 50 5.3 41.5
03:30 1023 30.21 852 25.16 15.1 59.1 53 5.7 42.3
03:35 1023 30.21 852 25.16 14.6 58.3 55 5.6 42.2
03:40 1023 30.21 852 25.16 14.3 57.8 56 5.8 42.5
03:45 1023 30.21 852 25.16 13.9 57 58 5.9 42.6
03:50 1023 30.21 852 25.16 13.6 56.4 59 5.8 42.4
03:55 1023 30.21 852 25.16 13.3 56 60 5.9 42.6
04:00 1023 30.21 852 25.16 13.3 55.9 60 5.7 42.3
04:05 1023 30.21 852 25.16 13.4 56 59 5.6 42.1
04:10 1023 30.21 852 25.16 13.5 56.3 59 5.7 42.2
04:15 1023 30.21 852 25.16 13.6 56.4 59 5.7 42.2
04:20 1023 30.21 852 25.16 13.7 56.6 58 5.7 42.3
04:25 1023 30.21 852 25.16 13.7 56.7 58 5.8 42.4
04:30 1023 30.21 852 25.16 13.6 56.5 59 5.8 42.5
04:35 1023 30.21 852 25.16 13.6 56.4 60 5.9 42.6
04:40 1023 30.21 852 25.16 13.5 56.2 60 5.8 42.5
04:45 1023 30.21 852 25.16 13.4 56 60 5.9 42.5
04:50 1023 30.21 852 25.16 13.2 55.8 61 5.9 42.7
04:55 1023 30.21 852 25.16 13.1 55.5 61 5.8 42.5
05:00 1023 30.21 852 25.16 13 55.4 61 5.8 42.4
05:05 1023 30.21 852 25.16 13 55.5 60 5.5 41.9
05:10 1023 30.21 852 25.16 13.3 56 60 5.7 42.3
05:15 1023 30.21 852 25.16 13.5 56.4 58 5.4 41.7
05:20 1023 30.21 852 25.16 13.8 56.9 57 5.5 41.9
05:25 1023 30.21 852 25.16 13.9 57.1 55 5.1 41.2
05:30 1023 30.21 852 25.16 13.9 57 57 5.5 41.9
05:35 1023 30.21 852 25.16 13.7 56.6 57 5.3 41.5
05:40 1023 30.21 852 25.16 13.1 55.6 61 5.8 42.5
05:45 1023 30.21 852 25.16 12.9 55.3 61 5.6 42.1
05:50 1023 30.21 852 25.16 12.9 55.2 62 5.8 42.4
05:55 1023 30.21 853 25.19 12.5 54.6 61 5.4 41.7
06:00 1023 30.21 853 25.19 12.5 54.4 62 5.4 41.7
06:05 1023 30.21 853 25.19 12.3 54.2 62 5.3 41.5
06:10 1023 30.21 853 25.19 12.2 54 63 5.6 42
06:15 1023 30.21 853 25.19 11.9 53.5 61 4.7 40.5
06:20 1023 30.21 853 25.19 12.2 54 60 4.8 40.6
06:25 1023 30.21 853 25.19 12.8 55.1 59 5.1 41.1
06:30 1023 30.21 853 25.19 12.6 54.7 59 4.7 40.5
06:35 1023 30.21 853 25.19 13.1 55.6 56 4.7 40.5
06:40 1023 30.21 853 25.19 13.6 56.4 55 4.8 40.7
06:45 1023 30.21 853 25.19 13.8 56.8 56 5.2 41.4
06:50 1023 30.21 853 25.19 13.7 56.7 56 5.1 41.3
06:55 1024 30.24 853 25.19 13.7 56.7 56 5.2 41.4
07:00 1023 30.21 853 25.19 13.8 56.9 57 5.4 41.8
07:05 1023 30.21 853 25.19 13.8 56.8 58 5.8 42.5
07:10 1023 30.21 853 25.19 13.7 56.7 59 5.9 42.6
07:15 1023 30.21 853 25.19 13.8 56.8 58 5.8 42.5
07:20 1023 30.21 853 25.19 14 57.1 57 5.7 42.3
07:25 1023 30.21 853 25.19 14.4 57.9 57 6.1 42.9
07:30 1023 30.21 853 25.19 14.6 58.3 58 6.5 43.6
07:35 1023 30.21 853 25.19 14.8 58.7 58 6.6 43.9
07:40 1023 30.21 853 25.19 15.2 59.3 57 6.9 44.4
07:45 1023 30.21 853 25.19 15.8 60.4 54 6.7 44.1
07:50 1023 30.21 853 25.19 16.3 61.3 53 6.8 44.2
07:55 1023 30.21 853 25.19 17.1 62.7 52 7.2 45
08:00 1023 30.21 853 25.19 17.5 63.6 51 7.4 45.3
08:05 1023 30.21 853 25.19 18.1 64.5 51 7.8 46
08:10 1023 30.21 853 25.19 17.1 62.8 53 7.5 45.4
08:15 1023 30.21 853 25.19 16.9 62.4 48 5.8 42.5
08:20 1024 30.24 853 25.19 16.9 62.5 50 6.6 43.9
08:25 1024 30.24 853 25.19 17.4 63.3 52 7.4 45.4
08:30 1023 30.21 853 25.19 17.9 64.2 48 6.9 44.4
08:35 1024 30.24 853 25.19 18.4 65 46 6.6 43.8
08:40 1024 30.24 853 25.19 18.3 65 47 6.8 44.3
08:45 1024 30.24 853 25.19 18.8 65.9 43 6 42.7
08:50 1024 30.24 853 25.19 19.1 66.5 42 5.9 42.6
08:55 1024 30.24 853 25.19 19 66.2 42 6.1 42.9
09:00 1024 30.24 853 25.19 19.5 67.1 40 5.7 42.3
09:05 1023 30.21 853 25.19 20.4 68.7 36 5.1 41.2
09:10 1023 30.21 853 25.19 20.5 68.8 38 5.7 42.2
09:15 1023 30.21 853 25.19 20.8 69.5 36 5.4 41.7
09:20 1023 30.21 853 25.19 20.9 69.7 36 5.6 42.2
09:25 1023 30.21 853 25.19 21.4 70.4 35 5.4 41.6
09:30 1023 30.21 853 25.19 21.5 70.6 36 5.9 42.5
09:35 1023 30.21 853 25.19 21 69.8 37 6 42.8
09:40 1023 30.21 852 25.16 20.7 69.2 37 5.6 42.1
09:45 1023 30.21 852 25.16 20.9 69.7 37 5.7 42.2
09:50 1023 30.21 852 25.16 21.9 71.4 33 5.3 41.5
09:55 1023 30.21 852 25.16 22.2 71.9 34 5.8 42.4
10:00 1023 30.21 852 25.16 22.2 71.9 33 5.4 41.8
10:05 1023 30.21 852 25.16 22.3 72.1 34 5.7 42.3
10:10 1023 30.21 852 25.16 22 71.5 33 5.1 41.2
10:15 1023 30.21 852 25.16 22.4 72.3 32 5.1 41.1
10:20 1023 30.21 852 25.16 22.9 73.3 32 5.5 41.8
10:25 1023 30.21 852 25.16 23.5 74.4 31 5.6 42.1
10:30 1023 30.21 852 25.16 23.7 74.7 31 5.8 42.5
10:35 1023 30.21 852 25.16 23.1 73.6 31 5.4 41.7
10:40 1023 30.21 852 25.16 22.4 72.3 31 4.7 40.5
10:45 1023 30.21 852 25.16 22.9 73.3 32 5.4 41.7
10:50 1022 30.18 852 25.16 23.2 73.8 32 5.9 42.6
10:55 1022 30.18 852 25.16 23.2 73.8 33 6.1 42.9
11:00 1022 30.18 852 25.16 23.6 74.5 31 5.7 42.2
11:05 1022 30.18 851 25.13 24.6 76.2 29 5.8 42.4
11:10 1022 30.18 851 25.13 25.7 78.2 26 5 41
11:15 1022 30.18 851 25.13 25.8 78.5 23 3.3 38
11:20 1022 30.18 851 25.13 25.5 77.9 25 4 39.3
11:25 1022 30.18 851 25.13 25.8 78.4 26 5 40.9
11:30 1022 30.18 851 25.13 26.4 79.5 25 5.3 41.6
11:35 1022 30.18 851 25.13 27.1 80.8 25 5.5 41.9
11:40 1022 30.18 851 25.13 26.9 80.5 27 6.6 43.9
11:45 1022 30.18 851 25.13 27.1 80.7 30 8.2 46.8
11:50 1022 30.18 851 25.13 26.5 79.7 31 8.4 47.1
11:55 1022 30.18 851 25.13 26.2 79.1 30 7.7 45.9
12:00 1022 30.18 851 25.13 26.3 79.4 32 8.6 47.5
12:05 1022 30.18 851 25.13 27 80.7 31 8.6 47.4
12:10 1022 30.18 851 25.13 26.9 80.4 30 8.3 46.9
12:15 1022 30.18 851 25.13 26.8 80.2 30 8.1 46.5
12:20 1022 30.18 851 25.13 25.7 78.2 33 8.6 47.5
12:25 1022 30.18 851 25.13 25.1 77.2 36 9.2 48.6
12:30 1022 30.18 851 25.13 25.3 77.6 34 8.7 47.7
12:35 1022 30.18 851 25.13 25.9 78.5 32 8.2 46.8
12:40 1022 30.18 851 25.13 25.7 78.2 35 9.4 48.9
12:45 1022 30.18 851 25.13 25.9 78.6 34 9.2 48.6
12:50 1021 30.15 851 25.13 25.2 77.4 36 9.2 48.6
12:55 1021 30.15 851 25.13 25 77.1 35 8.8 47.8
13:00 1021 30.15 850 25.1 25.5 77.9 32 7.9 46.3
13:05 1021 30.15 850 25.1 25.8 78.4 31 7.8 46
13:10 1021 30.15 850 25.1 26 78.9 31 7.9 46.2
13:15 1021 30.15 850 25.1 26 78.9 31 7.7 45.9
13:20 1021 30.15 850 25.1 26.4 79.5 27 6.1 42.9
13:25 1021 30.15 850 25.1 26.8 80.2 26 5.8 42.5
13:30 1021 30.15 850 25.1 27.3 81.1 23 4.7 40.4
13:35 1021 30.15 850 25.1 28.3 83 21 4.6 40.2
13:40 1021 30.15 850 25.1 28.5 83.3 23 5.8 42.4
13:45 1021 30.15 850 25.1 28 82.4 22 4.7 40.4
13:50 1021 30.15 850 25.1 28.7 83.7 20 3.8 38.9
13:55 1021 30.15 850 25.1 29 84.1 20 3.8 38.9
14:00 1020 30.12 850 25.1 28.9 84 15 0.4 32.8
14:05 1020 30.12 850 25.1 29.8 85.6 14 0.2 32.4
14:10 1020 30.12 850 25.1 29.8 85.7 17 2.3 36.2
14:15 1020 30.12 849 25.07 29.8 85.6 18 3 37.5
14:20 1020 30.12 849 25.07 30 86.1 15 0.7 33.3
14:25 1020 30.12 849 25.07 30.3 86.6 14 0.2 32.3
14:30 1020 30.12 849 25.07 30.2 86.3 15 0.6 33.1
14:35 1020 30.12 849 25.07 30.9 87.6 14 1 33.9
14:40 1020 30.12 849 25.07 31.1 88.1 14 0.7 33.2
14:45 1020 30.12 849 25.07 31.3 88.3 14 0.7 33.3
14:50 1020 30.12 849 25.07 30.4 86.8 15 1.6 34.9
14:55 1020 30.12 849 25.07 31 87.8 14 0.4 32.8
15:00 1020 30.12 849 25.07 31.3 88.3 14 0.9 33.6
15:05 1020 30.12 849 25.07 31.4 88.5 15 1.6 34.8
15:10 1020 30.12 849 25.07 31.4 88.5 13 -0.1 31.8
15:15 1020 30.12 849 25.07 31.4 88.4 13 0.5 32.8
15:20 1020 30.12 849 25.07 31.5 88.6 13 0.2 32.3
15:25 1020 30.12 849 25.07 31.4 88.6 13 -0.1 31.7
15:30 1020 30.12 849 25.07 31.5 88.7 13 0.3 32.6
15:35 1020 30.12 849 25.07 31 87.9 13 -0.4 31.3
15:40 1019 30.09 849 25.07 31.1 87.9 14 0.6 33.1
15:45 1019 30.09 849 25.07 31.1 88.1 13 0.1 32.1
15:50 1019 30.09 849 25.07 30.9 87.6 14 1.1 33.9
15:55 1019 30.09 848 25.04 30.7 87.3 14 0.9 33.7
16:00 1019 30.09 848 25.04 30.2 86.4 14 0.1 32.2
16:05 1019 30.09 848 25.04 29.4 84.9 14 -0.2 31.6
16:10 1019 30.09 848 25.04 29.8 85.6 14 0.1 32.1
16:15 1019 30.09 848 25.04 29.6 85.3 15 0.2 32.4
16:20 1019 30.09 848 25.04 30 86 15 0.7 33.3
16:25 1019 30.09 848 25.04 30.6 87.1 14 0.8 33.5
16:30 1019 30.09 848 25.04 30.5 87 15 1.3 34.3
16:35 1019 30.09 848 25.04 30.4 86.7 14 0.6 33.1
16:40 1019 30.09 848 25.04 30.4 86.8 14 0.6 33.1
16:45 1019 30.09 848 25.04 30.8 87.4 14 0.2 32.3
16:50 1019 30.09 848 25.04 29.8 85.6 15 0.3 32.6
16:55 1019 30.09 848 25.04 29.2 84.6 15 -0.1 31.8
17:00 1019 30.09 848 25.04 29.2 84.6 14 -0.5 31.1
17:05 1019 30.09 848 25.04 29.8 85.6 14 0.2 32.4
17:10 1019 30.09 848 25.04 29.9 85.8 14 0.2 32.4
17:15 1019 30.09 848 25.04 30.5 86.9 14 0.2 32.4
17:20 1019 30.09 848 25.04 29.6 85.3 15 0.6 33.1
17:25 1019 30.09 848 25.04 29.7 85.4 15 0.9 33.7
17:30 1019 30.09 848 25.04 29.2 84.6 18 2.5 36.5
17:35 1019 30.09 848 25.04 28.4 83.1 19 3 37.4
17:40 1019 30.09 848 25.04 28.3 82.9 21 4 39.2
17:45 1019 30.09 848 25.04 27.9 82.2 23 5.3 41.5
17:50 1019 30.09 848 25.04 28 82.4 23 5.5 41.9
17:55 1019 30.09 848 25.04 28.2 82.7 21 3.9 39
18:00 1019 30.09 848 25.04 28 82.3 21 4.1 39.4
18:05 1019 30.09 848 25.04 27.6 81.8 27 7 44.6
18:10 1019 30.09 848 25.04 27.2 81 29 8 46.5
18:15 1019 30.09 848 25.04 26.8 80.2 30 8 46.4
18:20 1019 30.09 848 25.04 27.1 80.7 28 7.2 45
18:25 1019 30.09 848 25.04 27.5 81.4 24 5.5 41.9
18:30 1019 30.09 848 25.04 27.7 81.8 23 5.1 41.2
18:35 1019 30.09 848 25.04 27.4 81.3 23 4.5 40.1
18:40 1019 30.09 848 25.04 27.4 81.3 22 4.4 39.9
18:45 1019 30.09 848 25.04 27.4 81.4 21 3.8 38.8
18:50 1018 30.06 848 25.04 27.1 80.7 22 3.9 39
18:55 1018 30.06 848 25.04 26.8 80.2 27 6.6 43.9
19:00 1018 30.06 848 25.04 26.6 79.9 26 5.8 42.4
19:05 1018 30.06 847 25.01 26.4 79.4 27 6.1 43
19:10 1018 30.06 847 25.01 26.4 79.5 28 6.7 44
19:15 1018 30.06 847 25.01 26.4 79.5 28 6.9 44.4
19:20 1018 30.06 847 25.01 26.3 79.3 31 8.1 46.5
19:25 1018 30.06 847 25.01 26.1 79.1 32 8.4 47
19:30 1018 30.06 847 25.01 26.1 78.9 33 8.8 47.8
19:35 1018 30.06 847 25.01 25.9 78.7 34 8.9 48
19:40 1018 30.06 847 25.01 25.6 78 33 8.5 47.4
19:45 1018 30.06 847 25.01 25.6 78.1 35 9.4 48.9
19:50 1018 30.06 847 25.01 25.6 78.1 31 7.5 45.4
19:55 1018 30.06 847 25.01 25.4 77.6 31 7.5 45.4
20:00 1018 30.06 847 25.01 25.1 77.3 33 7.9 46.2
20:05 1018 30.06 847 25.01 25.3 77.6 32 7.9 46.3
20:10 1018 30.06 847 25.01 25.5 77.9 33 8.2 46.7
20:15 1018 30.06 848 25.04 25.2 77.4 34 8.5 47.3
20:20 1018 30.06 848 25.04 25.2 77.3 33 8.2 46.7
20:25 1018 30.06 848 25.04 25.1 77.2 31 7.1 44.8
20:30 1018 30.06 848 25.04 25.1 77.1 32 7.4 45.4
20:35 1019 30.09 848 25.04 25 77 32 7.2 45
20:40 1019 30.09 848 25.04 24.8 76.7 31 6.8 44.3
20:45 1019 30.09 848 25.04 24.6 76.3 33 7.4 45.4
20:50 1019 30.09 848 25.04 24.3 75.7 34 7.5 45.4
20:55 1019 30.09 848 25.04 24.1 75.3 35 8.1 46.5
21:00 1019 30.09 848 25.04 23.8 74.8 34 7.2 44.9
21:05 1019 30.09 848 25.04 23.6 74.5 37 8.1 46.6
21:10 1019 30.09 848 25.04 23.4 74 35 7.2 45
21:15 1019 30.09 848 25.04 23.1 73.6 36 7.3 45.2
21:20 1019 30.09 848 25.04 23.1 73.5 37 8 46.4
21:25 1019 30.09 848 25.04 22.9 73.1 41 9.2 48.5
21:30 1019 30.09 848 25.04 22.5 72.4 43 9.5 49
21:35 1019 30.09 848 25.04 21.7 71 48 10.4 50.7
21:40 1019 30.09 848 25.04 21.4 70.5 47 9.7 49.5
21:45 1019 30.09 848 25.04 21.4 70.6 49 10.3 50.5
21:50 1019 30.09 848 25.04 21.3 70.3 52 11.2 52.2
21:55 1019 30.09 848 25.04 20.9 69.7 53 11 51.8
22:00 1019 30.09 848 25.04 20.5 68.8 51 10 50
22:05 1019 30.09 848 25.04 20.1 68.3 53 10.3 50.5
22:10 1019 30.09 848 25.04 20 67.9 54 10.4 50.7
22:15 1019 30.09 849 25.07 19.6 67.2 55 10.3 50.5
22:20 1019 30.09 849 25.07 19.2 66.6 52 9.3 48.7
22:25 1019 30.09 849 25.07 18.8 65.9 50 8.4 47.1
22:30 1019 30.09 849 25.07 18.7 65.6 50 8.3 46.9
22:35 1019 30.09 849 25.07 18.7 65.7 50 8.2 46.8
22:40 1019 30.09 849 25.07 18.7 65.7 49 7.9 46.1
22:45 1019 30.09 849 25.07 18.7 65.7 46 6.9 44.5
22:50 1019 30.09 849 25.07 18.6 65.5 45 6.7 44
22:55 1019 30.09 849 25.07 18.6 65.4 46 6.7 44.1
23:00 1020 30.12 849 25.07 18.6 65.4 42 5.7 42.3
23:05 1020 30.12 849 25.07 18.7 65.7 43 6 42.8
23:10 1020 30.12 849 25.07 18.6 65.4 45 6.4 43.6
23:15 1020 30.12 849 25.07 18.2 64.7 45 6 42.8
23:20 1020 30.12 849 25.07 18.4 65.2 44 6.1 43
23:25 1020 30.12 849 25.07 18.1 64.6 46 6.5 43.6
23:30 1019 30.09 849 25.07 17.8 64 45 5.8 42.5
23:35 1019 30.09 849 25.07 17.9 64.2 46 6.2 43.2
23:40 1019 30.09 849 25.07 18 64.4 44 5.6 42
23:45 1019 30.09 849 25.07 18.2 64.7 49 7.4 45.3
23:50 1019 30.09 849 25.07 17.6 63.8 46 6 42.8
23:55 1019 30.09 849 25.07 17.4 63.4 49 6.7 44.1
24:00 1019 30.09 849 25.07 17.4 63.2 47 6 42.8